createdAt,value
2022-08-28T00:01:29.250Z,3.60
2022-08-28T00:04:18.240Z,3.47
2022-08-28T00:07:08.105Z,3.53
2022-08-28T00:09:56.533Z,3.50
2022-08-28T00:12:45.282Z,3.57
2022-08-28T00:15:36.413Z,3.30
2022-08-28T00:18:25.621Z,3.80
2022-08-28T00:21:14.503Z,3.80
2022-08-28T00:24:04.987Z,4.03
2022-08-28T00:27:10.796Z,3.47
2022-08-28T00:29:59.331Z,3.43
2022-08-28T00:32:47.795Z,3.30
2022-08-28T00:35:36.268Z,3.50
2022-08-28T00:38:26.148Z,3.50
2022-08-28T00:41:15.987Z,3.80
2022-08-28T00:44:11.753Z,3.23
2022-08-28T00:47:00.276Z,3.13
2022-08-28T00:49:50.984Z,3.60
2022-08-28T00:52:38.492Z,3.43
2022-08-28T00:55:28.286Z,3.03
2022-08-28T00:58:18.214Z,3.57
2022-08-28T01:01:06.984Z,3.50
2022-08-28T01:03:55.459Z,3.60
2022-08-28T01:06:44.071Z,3.63
2022-08-28T01:09:32.940Z,3.37
2022-08-28T01:12:26.563Z,3.27
2022-08-28T01:15:18.313Z,3.37
2022-08-28T01:18:09.503Z,3.70
2022-08-28T01:21:02.403Z,3.60
2022-08-28T01:23:54.320Z,3.30
2022-08-28T01:26:42.951Z,3.20
2022-08-28T01:29:31.527Z,3.47
2022-08-28T01:32:33.607Z,3.40
2022-08-28T01:35:23.699Z,3.10
2022-08-28T01:38:12.357Z,3.63
2022-08-28T01:41:07.609Z,3.40
2022-08-28T01:43:56.137Z,3.23
2022-08-28T01:46:44.734Z,3.30
2022-08-28T01:49:33.291Z,3.43
2022-08-28T01:52:26.345Z,3.10
2022-08-28T01:55:15.076Z,3.17
2022-08-28T01:58:07.662Z,3.40
2022-08-28T02:00:56.133Z,3.10
2022-08-28T02:03:44.620Z,3.37
2022-08-28T02:06:33.843Z,3.20
2022-08-28T02:09:22.272Z,3.40
2022-08-28T02:12:10.771Z,3.30
2022-08-28T02:15:01.053Z,3.10
2022-08-28T02:17:49.625Z,3.30
2022-08-28T02:20:38.132Z,3.47
2022-08-28T02:23:26.541Z,3.60
2022-08-28T02:26:15.368Z,2.90
2022-08-28T02:29:03.812Z,3.33
2022-08-28T02:31:53.664Z,3.27
2022-08-28T02:34:43.594Z,3.50
2022-08-28T02:37:32.030Z,3.13
2022-08-28T02:40:22.739Z,3.43
2022-08-28T02:43:11.377Z,3.10
2022-08-28T02:45:59.968Z,3.27
2022-08-28T02:48:50.420Z,3.37
2022-08-28T02:51:38.922Z,3.43
2022-08-28T02:54:27.393Z,3.47
2022-08-28T02:57:16.088Z,3.20
2022-08-28T03:00:05.851Z,3.13
2022-08-28T03:02:54.418Z,3.40
2022-08-28T03:05:44.765Z,3.17
2022-08-28T03:08:33.441Z,3.10
2022-08-28T03:11:22.882Z,3.17
2022-08-28T03:14:11.378Z,3.23
2022-08-28T03:16:59.928Z,3.30
2022-08-28T03:19:48.948Z,3.27
2022-08-28T03:22:56.195Z,3.00
2022-08-28T03:25:44.979Z,3.43
2022-08-28T03:28:36.317Z,3.27
2022-08-28T03:31:26.843Z,3.13
2022-08-28T03:34:15.280Z,3.10
2022-08-28T03:37:03.734Z,2.93
2022-08-28T03:39:53.594Z,3.50
2022-08-28T03:42:42.095Z,3.23
2022-08-28T03:45:35.411Z,3.40
2022-08-28T03:48:24.401Z,3.33
2022-08-28T03:51:14.542Z,3.30
2022-08-28T03:54:04.196Z,3.20
2022-08-28T03:56:53.956Z,3.10
2022-08-28T03:59:42.409Z,3.17
2022-08-28T04:02:31.333Z,2.80
2022-08-28T04:05:19.900Z,3.10
2022-08-28T04:08:08.900Z,3.20
2022-08-28T04:10:57.484Z,3.03
2022-08-28T04:13:47.298Z,3.30
2022-08-28T04:16:36.250Z,3.33
2022-08-28T04:19:24.808Z,3.33
2022-08-28T04:22:13.322Z,3.30
2022-08-28T04:25:02.172Z,2.97
2022-08-28T04:27:50.857Z,3.17
2022-08-28T04:30:41.678Z,3.30
2022-08-28T04:33:31.500Z,3.00
2022-08-28T04:36:19.999Z,2.93
2022-08-28T04:39:10.905Z,3.30
2022-08-28T04:41:59.312Z,3.10
2022-08-28T04:44:47.817Z,3.23
2022-08-28T04:47:38.712Z,3.00
2022-08-28T04:50:27.240Z,2.93
2022-08-28T04:53:17.037Z,3.20
2022-08-28T04:56:06.839Z,3.13
2022-08-28T04:58:55.350Z,3.07
2022-08-28T05:01:44.033Z,2.80
2022-08-28T05:04:33.918Z,3.20
2022-08-28T05:07:22.426Z,3.13
2022-08-28T05:10:11.174Z,2.93
2022-08-28T05:12:59.574Z,3.10
2022-08-28T05:15:49.660Z,2.80
2022-08-28T05:18:38.358Z,3.13
2022-08-28T05:21:28.748Z,3.17
2022-08-28T05:24:17.277Z,3.03
2022-08-28T05:27:06.304Z,2.97
2022-08-28T05:29:57.374Z,3.23
2022-08-28T05:32:49.571Z,2.77
2022-08-28T05:35:39.274Z,2.87
2022-08-28T05:38:29.499Z,2.80
2022-08-28T05:41:20.598Z,2.90
2022-08-28T05:44:10.477Z,3.10
2022-08-28T05:46:58.986Z,2.83
2022-08-28T05:49:47.435Z,2.90
2022-08-28T05:52:35.982Z,3.13
2022-08-28T05:55:25.831Z,3.03
2022-08-28T05:58:28.223Z,2.73
2022-08-28T06:01:19.442Z,2.80
2022-08-28T06:04:10.140Z,2.80
2022-08-28T06:06:58.870Z,2.87
2022-08-28T06:09:47.383Z,2.80
2022-08-28T06:12:37.305Z,2.73
2022-08-28T06:15:26.873Z,2.83
2022-08-28T06:18:16.028Z,2.70
2022-08-28T06:21:04.622Z,3.00
2022-08-28T06:23:53.113Z,2.73
2022-08-28T06:26:41.653Z,2.90
2022-08-28T06:29:31.551Z,3.63
2022-08-28T06:32:20.190Z,2.97
2022-08-28T06:35:09.154Z,3.00
2022-08-28T06:37:59.286Z,2.83
2022-08-28T06:40:49.060Z,2.80
2022-08-28T06:43:37.660Z,3.00
2022-08-28T06:46:30.245Z,3.20
2022-08-28T06:49:18.862Z,2.67
2022-08-28T06:52:07.409Z,2.60
2022-08-28T06:54:56.113Z,3.00
2022-08-28T06:57:44.534Z,2.73
2022-08-28T07:00:33.165Z,2.93
2022-08-28T07:03:22.949Z,2.90
2022-08-28T07:06:11.954Z,2.70
2022-08-28T07:09:00.387Z,2.97
2022-08-28T07:11:48.957Z,3.27
2022-08-28T07:14:38.046Z,3.43
2022-08-28T07:17:26.490Z,2.93
2022-08-28T07:20:16.567Z,3.00
2022-08-28T07:23:05.287Z,3.00
2022-08-28T07:25:54.054Z,3.23
2022-08-28T07:28:42.651Z,2.90
2022-08-28T07:31:33.943Z,3.13
2022-08-28T07:34:27.252Z,3.13
2022-08-28T07:37:17.808Z,2.67
2022-08-28T07:40:08.537Z,2.80
2022-08-28T07:43:17.285Z,2.77
2022-08-28T07:46:07.951Z,2.90
2022-08-28T07:48:58.691Z,2.90
2022-08-28T07:51:47.151Z,2.90
2022-08-28T07:54:37.269Z,3.10
2022-08-28T07:57:25.729Z,2.90
2022-08-28T08:00:15.880Z,2.80
2022-08-28T08:03:04.995Z,2.50
2022-08-28T08:05:53.978Z,2.90
2022-08-28T08:08:42.813Z,2.80
2022-08-28T08:11:32.808Z,2.93
2022-08-28T08:14:21.751Z,3.40
2022-08-28T08:17:10.347Z,2.87
2022-08-28T08:19:58.818Z,2.60
2022-08-28T08:22:47.269Z,2.87
2022-08-28T08:25:35.867Z,3.30
2022-08-28T08:28:25.677Z,2.90
2022-08-28T08:31:15.750Z,2.87
2022-08-28T08:34:05.640Z,3.63
2022-08-28T08:36:54.244Z,3.27
2022-08-28T08:39:43.565Z,3.30
2022-08-28T08:42:33.050Z,5.73
2022-08-28T08:45:26.420Z,3.77
2022-08-28T08:48:20.867Z,3.10
2022-08-28T08:51:28.085Z,3.30
2022-08-28T08:54:19.094Z,2.80
2022-08-28T08:57:07.521Z,3.10
2022-08-28T08:59:56.065Z,3.50
2022-08-28T09:02:50.217Z,3.70
2022-08-28T09:05:45.372Z,3.60
2022-08-28T09:08:48.856Z,3.33
2022-08-28T09:11:45.405Z,3.53
2022-08-28T09:14:44.999Z,3.27
2022-08-28T09:17:37.380Z,3.33
2022-08-28T09:20:32.518Z,2.93
2022-08-28T09:23:23.120Z,3.00
2022-08-28T09:26:13.889Z,3.27
2022-08-28T09:29:06.210Z,3.17
2022-08-28T09:31:54.662Z,3.50
2022-08-28T09:34:43.140Z,2.73
2022-08-28T09:37:33.109Z,3.00
2022-08-28T09:40:24.573Z,3.53
2022-08-28T09:43:28.708Z,3.50
2022-08-28T09:46:21.593Z,3.30
2022-08-28T09:49:11.882Z,3.27
2022-08-28T09:52:01.635Z,3.53
2022-08-28T09:54:51.554Z,2.90
2022-08-28T09:57:46.425Z,3.13
2022-08-28T10:00:38.109Z,3.13
2022-08-28T10:03:28.961Z,3.20
2022-08-28T10:06:22.806Z,3.20
2022-08-28T10:09:17.603Z,3.37
2022-08-28T10:12:14.040Z,3.33
2022-08-28T10:15:11.074Z,2.73
2022-08-28T10:18:19.402Z,3.30
2022-08-28T10:21:18.999Z,2.93
2022-08-28T10:24:26.707Z,3.00
2022-08-28T10:27:32.217Z,2.90
2022-08-28T10:30:22.929Z,3.50
2022-08-28T10:33:25.540Z,2.90
2022-08-28T10:36:23.182Z,2.73
2022-08-28T10:39:31.332Z,3.27
2022-08-28T10:42:30.228Z,3.00
2022-08-28T10:45:25.829Z,3.13
2022-08-28T10:48:19.693Z,3.00
2022-08-28T10:51:12.881Z,2.87
2022-08-28T10:54:03.524Z,3.10
2022-08-28T10:56:56.624Z,3.03
2022-08-28T10:59:49.569Z,3.20
2022-08-28T11:02:38.333Z,2.93
2022-08-28T11:05:29.545Z,3.00
2022-08-28T11:08:26.051Z,2.70
2022-08-28T11:11:15.349Z,3.03
2022-08-28T11:14:03.728Z,3.13
2022-08-28T11:16:54.463Z,3.20
2022-08-28T11:19:58.834Z,2.93
2022-08-28T11:22:49.752Z,2.63
2022-08-28T11:25:45.286Z,3.00
2022-08-28T11:28:47.243Z,2.93
2022-08-28T11:31:41.019Z,3.00
2022-08-28T11:34:59.205Z,2.57
2022-08-28T11:37:49.667Z,2.80
2022-08-28T11:40:57.931Z,2.67
2022-08-28T11:43:46.783Z,2.60
2022-08-28T11:46:38.086Z,2.53
2022-08-28T11:49:44.389Z,2.67
2022-08-28T11:52:45.895Z,3.00
2022-08-28T11:55:51.912Z,2.63
2022-08-28T11:58:45.362Z,3.17
2022-08-28T12:01:36.798Z,2.60
2022-08-28T12:04:25.339Z,2.80
2022-08-28T12:07:21.954Z,3.00
2022-08-28T12:10:52.351Z,3.03
2022-08-28T12:13:51.029Z,2.80
2022-08-28T12:17:20.255Z,3.00
2022-08-28T12:20:10.821Z,3.00
2022-08-28T12:23:00.786Z,2.87
2022-08-28T12:25:49.224Z,2.90
2022-08-28T12:28:47.008Z,2.97
2022-08-28T12:32:08.799Z,3.00
2022-08-28T12:35:17.606Z,2.60
2022-08-28T12:38:07.409Z,2.93
2022-08-28T12:40:55.878Z,2.90
2022-08-28T12:43:48.326Z,2.60
2022-08-28T12:46:38.693Z,2.70
2022-08-28T12:49:30.676Z,2.83
2022-08-28T12:52:21.092Z,3.10
2022-08-28T12:55:10.077Z,2.53
2022-08-28T12:57:58.594Z,2.90
2022-08-28T13:00:54.307Z,2.80
2022-08-28T13:03:45.933Z,2.80
2022-08-28T13:06:36.371Z,2.83
2022-08-28T13:09:26.674Z,2.97
2022-08-28T13:12:20.993Z,2.90
2022-08-28T13:15:11.462Z,2.70
2022-08-28T13:18:01.387Z,3.00
2022-08-28T13:20:51.178Z,2.93
2022-08-28T13:23:39.775Z,2.53
2022-08-28T13:26:33.924Z,3.07
2022-08-28T13:29:24.787Z,2.57
2022-08-28T13:32:17.470Z,2.60
2022-08-28T13:35:42.145Z,2.70
2022-08-28T13:38:30.639Z,2.70
2022-08-28T13:41:19.393Z,2.80
2022-08-28T13:44:08.541Z,2.93
2022-08-28T13:46:57.263Z,2.63
2022-08-28T13:49:45.746Z,2.67
2022-08-28T13:52:35.934Z,2.70
2022-08-28T13:55:24.891Z,2.53
2022-08-28T13:58:15.781Z,2.97
2022-08-28T14:01:05.149Z,2.80
2022-08-28T14:03:52.719Z,2.70
2022-08-28T14:06:44.328Z,2.40
2022-08-28T14:09:34.194Z,2.60
2022-08-28T14:12:22.708Z,2.50
2022-08-28T14:15:20.146Z,2.70
2022-08-28T14:18:08.683Z,2.63
2022-08-28T14:20:57.495Z,2.70
2022-08-28T14:23:46.549Z,2.60
2022-08-28T14:26:36.479Z,2.43
2022-08-28T14:29:24.923Z,2.40
2022-08-28T14:32:13.463Z,3.03
2022-08-28T14:35:01.867Z,2.60
2022-08-28T14:37:50.427Z,2.73
2022-08-28T14:40:39.317Z,2.67
2022-08-28T14:43:30.148Z,3.10
2022-08-28T14:46:19.431Z,2.80
2022-08-28T14:49:09.629Z,2.40
2022-08-28T14:51:58.220Z,3.03
2022-08-28T14:54:46.744Z,2.57
2022-08-28T14:57:37.007Z,2.70
2022-08-28T15:00:26.937Z,2.87
2022-08-28T15:03:15.789Z,2.83
2022-08-28T15:06:06.574Z,2.60
2022-08-28T15:08:55.098Z,2.77
2022-08-28T15:11:43.955Z,2.53
2022-08-28T15:14:32.439Z,2.80
2022-08-28T15:17:23.189Z,2.80
2022-08-28T15:20:22.685Z,2.40
2022-08-28T15:23:11.392Z,2.87
2022-08-28T15:25:59.819Z,2.67
2022-08-28T15:28:48.280Z,2.63
2022-08-28T15:31:39.065Z,2.90
2022-08-28T15:34:29.292Z,2.87
2022-08-28T15:37:18.519Z,2.70
2022-08-28T15:40:26.660Z,2.43
2022-08-28T15:43:15.555Z,2.67
2022-08-28T15:46:13.011Z,2.20
2022-08-28T15:49:01.685Z,2.73
2022-08-28T15:51:52.081Z,2.57
2022-08-28T15:54:40.566Z,2.57
2022-08-28T15:57:28.983Z,2.60
2022-08-28T16:00:18.120Z,2.50
2022-08-28T16:03:06.638Z,2.40
2022-08-28T16:05:55.144Z,2.83
2022-08-28T16:08:45.176Z,2.50
2022-08-28T16:11:34.351Z,2.50
2022-08-28T16:14:28.040Z,2.87
2022-08-28T16:17:16.487Z,2.63
2022-08-28T16:20:12.957Z,2.40
2022-08-28T16:23:02.062Z,3.00
2022-08-28T16:25:51.974Z,2.53
2022-08-28T16:28:40.477Z,2.30
2022-08-28T16:31:30.787Z,2.53
2022-08-28T16:34:19.647Z,2.90
2022-08-28T16:37:08.779Z,2.90
2022-08-28T16:39:57.479Z,2.90
2022-08-28T16:42:51.682Z,3.03
2022-08-28T16:45:43.504Z,2.90
2022-08-28T16:48:31.979Z,2.80
2022-08-28T16:51:20.563Z,2.97
2022-08-28T16:54:09.348Z,2.40
2022-08-28T16:56:57.978Z,3.03
2022-08-28T16:59:48.278Z,2.83
2022-08-28T17:02:41.786Z,2.90
2022-08-28T17:05:30.495Z,2.70
2022-08-28T17:08:19.010Z,2.90
2022-08-28T17:11:07.685Z,2.70
2022-08-28T17:13:56.496Z,2.40
2022-08-28T17:16:46.654Z,2.87
2022-08-28T17:19:35.159Z,2.60
2022-08-28T17:22:32.003Z,2.83
2022-08-28T17:25:20.503Z,2.80
2022-08-28T17:28:08.954Z,2.30
2022-08-28T17:30:57.502Z,2.43
2022-08-28T17:33:47.374Z,2.30
2022-08-28T17:36:36.892Z,2.40
2022-08-28T17:39:25.838Z,2.37
2022-08-28T17:42:14.297Z,2.70
2022-08-28T17:45:02.874Z,2.40
2022-08-28T17:47:53.502Z,2.50
2022-08-28T17:50:43.383Z,2.33
2022-08-28T17:53:31.806Z,2.10
2022-08-28T17:56:20.327Z,2.37
2022-08-28T17:59:21.905Z,2.50
2022-08-28T18:02:10.747Z,2.80
2022-08-28T18:04:59.423Z,2.47
2022-08-28T18:07:52.332Z,2.77
2022-08-28T18:10:41.077Z,2.57
2022-08-28T18:13:30.179Z,3.10
2022-08-28T18:16:18.970Z,2.77
2022-08-28T18:19:09.499Z,2.40
2022-08-28T18:21:57.989Z,2.60
2022-08-28T18:24:52.410Z,3.10
2022-08-28T18:27:40.995Z,3.10
2022-08-28T18:30:29.618Z,2.70
2022-08-28T18:33:22.146Z,2.83
2022-08-28T18:36:11.923Z,2.60
2022-08-28T18:39:00.354Z,2.97
2022-08-28T18:41:51.252Z,2.50
2022-08-28T18:44:39.736Z,3.00
2022-08-28T18:47:28.398Z,3.23
2022-08-28T18:50:16.916Z,2.90
2022-08-28T18:53:06.191Z,2.60
2022-08-28T18:55:55.574Z,3.00
2022-08-28T18:58:45.784Z,2.80
2022-08-28T19:01:34.462Z,3.03
2022-08-28T19:04:22.996Z,2.97
2022-08-28T19:07:11.507Z,3.03
2022-08-28T19:09:59.950Z,3.30
2022-08-28T19:12:48.551Z,2.80
2022-08-28T19:15:40.494Z,3.00
2022-08-28T19:18:29.918Z,2.90
2022-08-28T19:21:19.652Z,3.03
2022-08-28T19:24:08.349Z,3.30
2022-08-28T19:26:56.793Z,3.00
2022-08-28T19:29:45.240Z,3.10
2022-08-28T19:32:35.045Z,2.87
2022-08-28T19:35:24.818Z,2.90
2022-08-28T19:38:13.594Z,3.10
2022-08-28T19:41:02.614Z,2.97
2022-08-28T19:43:51.703Z,3.00
2022-08-28T19:46:40.504Z,2.77
2022-08-28T19:49:30.396Z,2.80
2022-08-28T19:52:19.165Z,2.93
2022-08-28T19:55:09.189Z,3.20
2022-08-28T19:57:57.638Z,2.97
2022-08-28T20:00:46.096Z,2.90
2022-08-28T20:03:36.348Z,3.03
2022-08-28T20:06:26.415Z,3.30
2022-08-28T20:09:14.843Z,2.90
2022-08-28T20:12:03.725Z,2.90
2022-08-28T20:14:52.180Z,3.43
2022-08-28T20:17:43.871Z,3.10
2022-08-28T20:20:38.184Z,3.03
2022-08-28T20:23:28.536Z,3.07
2022-08-28T20:26:17.022Z,3.33
2022-08-28T20:29:05.693Z,3.23
2022-08-28T20:31:54.283Z,3.30
2022-08-28T20:34:44.574Z,3.00
2022-08-28T20:37:34.466Z,3.10
2022-08-28T20:40:34.759Z,3.30
2022-08-28T20:43:23.399Z,2.97
2022-08-28T20:46:12.088Z,3.17
2022-08-28T20:49:00.725Z,3.03
2022-08-28T20:51:56.566Z,3.03
2022-08-28T20:54:46.008Z,3.23
2022-08-28T20:57:37.635Z,2.53
2022-08-28T21:00:26.594Z,3.00
2022-08-28T21:03:15.095Z,2.77
2022-08-28T21:06:03.601Z,2.83
2022-08-28T21:08:53.267Z,2.90
2022-08-28T21:11:42.151Z,2.90
2022-08-28T21:14:32.084Z,2.87
2022-08-28T21:17:20.850Z,2.70
2022-08-28T21:20:20.011Z,2.77
2022-08-28T21:23:08.512Z,2.67
2022-08-28T21:25:57.109Z,2.40
2022-08-28T21:28:45.557Z,2.30
2022-08-28T21:31:35.465Z,2.63
2022-08-28T21:34:24.672Z,2.27
2022-08-28T21:37:13.168Z,2.10
2022-08-28T21:40:02.005Z,2.50
2022-08-28T21:42:50.445Z,2.60
2022-08-28T21:45:38.998Z,2.43
2022-08-28T21:48:28.903Z,2.20
2022-08-28T21:51:18.799Z,2.50
2022-08-28T21:54:07.488Z,2.23
2022-08-28T21:56:58.545Z,2.10
2022-08-28T21:59:47.490Z,2.40
2022-08-28T22:02:36.034Z,2.30
2022-08-28T22:05:28.272Z,2.20
2022-08-28T22:08:17.696Z,2.17
2022-08-28T22:11:06.684Z,2.40
2022-08-28T22:13:55.332Z,2.47
2022-08-28T22:16:44.720Z,2.07
2022-08-28T22:19:33.212Z,2.30
2022-08-28T22:22:40.687Z,2.10
2022-08-28T22:25:29.174Z,2.40
2022-08-28T22:28:17.659Z,2.80
2022-08-28T22:31:06.408Z,1.87
2022-08-28T22:33:55.076Z,2.10
2022-08-28T22:36:43.521Z,2.40
2022-08-28T22:39:33.371Z,2.20
2022-08-28T22:42:22.966Z,2.30
2022-08-28T22:45:11.757Z,2.27
2022-08-28T22:48:00.326Z,2.53
2022-08-28T22:50:49.899Z,2.23
2022-08-28T22:53:38.548Z,2.20
2022-08-28T22:56:28.362Z,2.00
2022-08-28T22:59:16.827Z,2.13
2022-08-28T23:02:05.628Z,2.40
2022-08-28T23:04:54.130Z,2.23
2022-08-28T23:07:42.926Z,2.40
2022-08-28T23:10:55.396Z,2.07
2022-08-28T23:13:41.185Z,1.97
2022-08-28T23:16:29.810Z,2.20
2022-08-28T23:19:19.103Z,2.30
2022-08-28T23:22:07.626Z,2.10
2022-08-28T23:24:56.114Z,1.90
2022-08-28T23:27:44.843Z,2.40
2022-08-28T23:30:34.875Z,2.03
2022-08-28T23:33:24.193Z,2.00
2022-08-28T23:36:13.009Z,2.20
2022-08-28T23:39:01.482Z,2.50
2022-08-28T23:41:49.985Z,2.50
2022-08-28T23:44:38.475Z,2.10
2022-08-28T23:47:28.359Z,2.17
2022-08-28T23:50:18.854Z,2.33
2022-08-28T23:53:07.315Z,2.07
2022-08-28T23:55:56.507Z,2.70
2022-08-28T23:58:48.110Z,2.30
